Latest Coastal Weather Observations for Darwin Airport

IDD60701

Issued at 7:55 pm CST Tuesday 21 October 2014 (issued every 10 minutes, with the page automatically refreshed every 10 minutes)

About coastal observations | Map of coastal stations | Coastal observations for NT | Marine services | Other Formats
Station Details ID: 014015 Name: DARWIN AIRPORT Lat: -12.42 Lon: 130.89 Height: 30.4 m
Data from the previous 72 hours. | See also: Recent months at Darwin Airport
Date/Time
CST
Temp

°C
Wind Pressure Rain
since 9am
mm
Weather Cloud Vis
km
Sea
Height
m
Swell
Dir
 
Speed
knots
Gust
knots
hPa Trend Height
m
Period
s
Dir
21/07:30pm 29.8 W 5 6 1012.4 - 0.0 - - 10 - - - -
21/07:00pm 30.6 NNW 6 6 1012.0 - 0.0 - - 10 - - - -
21/06:30pm 30.9 NNW 6 7 1011.6 - 0.0 - - 10 - - - -
21/06:00pm 31.5 N 7 10 1011.1 R 0.0 Smoke Mostly clear 25 - - - -
21/05:30pm 31.7 N 9 13 1011.0 - 0.0 - - 10 - - - -
21/05:00pm 31.8 NNE 13 17 1010.7 - 0.0 - - 10 - - - -
21/04:30pm 32.1 N 14 17 1010.6 - 0.0 - - 10 - - - -
21/04:00pm 32.0 N 14 18 1010.8 - 0.0 - - 10 - - - -
21/03:30pm 32.7 N 13 16 1011.1 - 0.0 - - 10 - - - -
21/03:00pm 32.7 NNW 14 17 1011.1 F 0.0 Smoke Mostly clear 25 - - - -
21/02:30pm 32.1 NNW 14 17 1011.6 - 0.0 - - 10 - - - -
21/02:00pm 32.2 N 14 19 1012.2 - 0.0 - - 10 - - - -
21/01:30pm 32.6 NNW 13 17 1012.9 - 0.0 - Partly cloudy 10 - - - -
21/01:00pm 32.7 NNW 13 16 1013.4 - 0.0 - Partly cloudy 10 - - - -
21/12:30pm 32.2 NW 12 15 1014.2 - 0.0 - Mostly clear 10 - - - -
21/12:00pm 33.0 ENE 7 11 1014.5 S 0.0 Smoke Mostly clear 25 - - - -
21/11:30am 33.1 E 10 14 1015.2 - 0.0 - Mostly clear 10 - - - -
21/11:00am 32.4 ENE 11 15 1015.6 - 0.0 - Mostly clear 10 - - - -
21/10:30am 31.5 ENE 12 18 1016.1 - 0.0 - Partly cloudy 10 - - - -
21/10:00am 30.6 E 11 16 1016.4 - 0.0 - Partly cloudy 10 - - - -
21/09:30am 29.6 ENE 11 15 1016.5 - 0.0 - Partly cloudy 10 - - - -
21/09:00am 29.4 ENE 10 13 1015.7 S 0.0 Smoke Mostly clear 20 - - - -
21/08:30am 28.9 NE 9 10 1015.6 - 0.0 - Mostly clear 10 - - - -
21/08:00am 27.7 NE 6 8 1015.4 - 0.0 - Mostly clear 10 - - - -
21/07:30am 26.6 ENE 4 6 1015.1 - 0.0 - Mostly clear 10 - - - -
21/07:00am 25.0 E 4 5 1014.8 - 0.0 - Mostly clear 10 - - - -
21/06:30am 24.1 E 5 5 1014.6 - 0.0 - - 10 - - - -
21/06:00am 23.9 ENE 5 6 1013.9 F 0.0 Smoke Mostly clear 20 - - - -
21/05:30am 24.3 ENE 5 5 1014.0 - 0.0 - - 10 - - - -
21/05:00am 24.4 NE 5 6 1013.9 - 0.0 - - 10 - - - -
21/04:30am 24.5 ENE 6 7 1013.8 - 0.0 - - 10 - - - -
21/04:00am 24.6 ENE 5 7 1013.8 - 0.0 - - 10 - - - -
21/03:30am 24.8 ENE 6 7 1013.6 - 0.0 - - 10 - - - -
21/03:00am 25.2 ENE 5 5 1013.3 R 0.0 Smoke Mostly cloudy 16 - - - -
21/02:30am 25.6 NE 7 8 1013.7 - 0.0 - - 10 - - - -
21/02:00am 25.7 NNE 4 6 1014.1 - 0.0 - - 10 - - - -
21/01:30am 26.6 NNW 5 7 1014.0 - 0.0 - - 10 - - - -
21/01:00am 27.3 NNW 6 8 1014.2 - 0.0 - - 10 - - - -
21/12:30am 27.8 NNW 8 10 1014.3 - 0.0 - Mostly clear 10 - - - -
21/12:00am 28.0 NNW 10 14 1014.1 R 0.0 Smoke Mostly cloudy 18 - - - -
 
Date/Time
CST
Temp

°C
Wind Pressure Rain
since 9am
mm
Weather Cloud Vis
km
Sea
Height
m
Swell
Dir
 
Speed
knots
Gust
knots
hPa Trend Height
m
Period
s
Dir
20/11:30pm 28.1 NNW 13 17 1014.4 - 0.0 - Mostly clear 10 - - - -
20/11:00pm 28.1 NNW 14 19 1014.2 - 0.0 - Mostly clear 10 - - - -
20/10:30pm 27.2 NNE 7 9 1013.9 - 0.0 - - 10 - - - -
20/10:00pm 26.9 NE 8 10 1013.7 - 0.0 - - 10 - - - -
20/09:30pm 26.8 ENE 7 8 1013.4 - 0.0 - - 10 - - - -
20/09:00pm 26.0 ENE 5 6 1012.8 R 0.0 Smoke Clear 25 - - - -
20/08:30pm 27.2 NNE 5 6 1012.7 - 0.0 - - 10 - - - -
20/08:00pm 27.9 N 5 6 1012.2 - 0.0 - - 10 - - - -
20/07:30pm 29.3 N 5 5 1011.7 - 0.0 - - 10 - - - -
20/07:00pm 30.0 N 6 7 1011.2 - 0.0 - - 10 - - - -
20/06:30pm 30.6 NNW 7 9 1010.9 - 0.0 - - 10 - - - -
20/06:00pm 31.6 NNW 9 11 1010.2 R 0.0 Smoke Clear 25 - - - -
20/05:30pm 31.6 N 11 15 1010.0 - 0.0 - - 10 - - - -
20/05:00pm 32.0 N 14 17 1009.6 - 0.0 - - 10 - - - -
20/04:30pm 32.5 N 16 19 1009.5 - 0.0 - - 10 - - - -
20/04:00pm 32.3 NNE 14 18 1009.6 - 0.0 - - 10 - - - -
20/03:30pm 32.3 N 15 18 1009.9 - 0.0 - - 10 - - - -
20/03:00pm 32.0 N 13 18 1009.9 F 0.0 Smoke Mostly clear 25 - - - -
20/02:30pm 31.0 N 13 16 1010.5 - 0.0 - Mostly clear 10 - - - -
20/02:00pm 31.5 NNW 14 19 1010.9 - 0.0 - Partly cloudy 10 - - - -
20/01:30pm 31.7 NNW 15 18 1011.8 - 0.0 - Partly cloudy 10 - - - -
20/01:00pm 32.3 NW 13 16 1012.2 - 0.0 - Partly cloudy 10 - - - -
20/12:30pm 32.0 WNW 13 18 1013.1 - 0.0 - Partly cloudy 10 - - - -
20/12:00pm 33.6 SW 6 9 1013.2 F 0.0 Smoke Partly cloudy 25 - - - -
20/11:30am 33.1 E 10 14 1014.0 - 0.0 - - 10 - - - -
20/11:00am 32.4 E 13 19 1014.4 - 0.0 - - 10 - - - -
20/10:30am 32.3 ESE 11 14 1014.9 - 0.0 - Mostly clear 10 - - - -
20/10:00am 31.0 ENE 11 16 1015.3 - 0.0 - Mostly clear 10 - - - -
20/09:30am 29.9 ENE 9 14 1015.3 - 0.0 - Mostly clear 10 - - - -
20/09:00am 29.0 ENE 7 10 1014.8 F 4.2 Smoke Mostly clear 20 - - - -
20/08:30am 28.1 ENE 5 7 1015.1 - 4.0 - Mostly clear 10 - - - -
20/08:00am 27.3 E 7 9 1014.9 - 4.0 - - 10 - - - -
20/07:30am 26.7 ESE 6 7 1014.5 - 4.0 - - 10 - - - -
20/07:00am 25.8 ESE 6 7 1014.1 - 4.0 - Partly cloudy 10 - - - -
20/06:30am 25.5 SE 5 5 1013.9 - 4.0 - Partly cloudy 10 - - - -
20/06:00am 25.6 SE 4 5 1013.4 R 4.0 Smoke Partly cloudy 25 - - - -
20/05:30am 25.5 ESE 3 4 1013.5 - 4.0 - - 10 - - - -
20/05:00am 25.7 SE 5 6 1013.2 - 4.0 - Partly cloudy 10 - - - -
20/04:30am 25.9 ESE 5 6 1013.0 - 4.0 - Mostly clear 10 - - - -
20/04:00am 25.8 ENE 8 9 1013.0 - 4.0 - Mostly clear 10 - - - -
20/03:30am 26.0 E 5 7 1013.0 - 4.0 - Mostly clear 10 - - - -
20/03:00am 26.0 ENE 6 7 1012.4 F 4.0 Fine Mostly cloudy 30 - - - -
20/02:30am 26.1 NE 8 9 1012.9 - 4.0 - Mostly clear 10 - - - -
20/02:00am 26.1 NNE 6 8 1013.0 - 4.0 - Mostly clear 10 - - - -
20/01:30am 25.9 NNE 6 7 1013.2 - 4.0 - Mostly clear 10 - - - -
20/01:00am 25.6 E 3 8 1013.6 - 4.0 Showers Mostly clear 10 - - - -
20/12:30am 25.9 NE 7 9 1013.8 - 0.6 Showers Mostly clear 10 - - - -
20/12:00am 27.6 N 7 8 1013.6 R 0.0 Fine Mostly clear 30 - - - -
 
Date/Time
CST
Temp

°C
Wind Pressure Rain
since 9am
mm
Weather Cloud Vis
km
Sea
Height
m
Swell
Dir
 
Speed
knots
Gust
knots
hPa Trend Height
m
Period
s
Dir
19/11:30pm 28.8 NW 5 8 1013.9 - 0.0 - Mostly clear 10 - - - -
19/11:00pm 28.5 W 8 9 1013.9 - 0.0 - Mostly clear 10 - - - -
19/10:30pm 28.5 WSW 11 14 1013.8 - 0.0 - Mostly clear 10 - - - -
19/10:00pm 28.6 W 12 17 1013.4 - 0.0 - Mostly clear 10 - - - -
19/09:30pm 28.8 W 12 16 1013.0 - 0.0 - Mostly clear 10 - - - -
19/09:00pm 29.0 N 8 10 1012.2 R 0.0 Smoke Mostly clear 25 - - - -
19/08:30pm 28.7 NE 8 10 1012.0 - 0.0 - - 10 - - - -
19/08:00pm 29.0 NNE 8 10 1011.6 - 0.0 - - 10 - - - -
19/07:30pm 29.4 NNE 11 16 1010.9 - 0.0 - - 10 - - - -
19/07:00pm 29.8 NNE 14 18 1010.4 - 0.0 - - 10 - - - -
19/06:30pm 30.3 NNE 15 20 1009.9 - 0.0 - - 10 - - - -
19/06:00pm 31.0 NNE 15 19 1009.4 R 0.0 Smoke Clear 25 - - - -
19/05:30pm 31.8 NNE 14 18 1009.5 - 0.0 - - 10 - - - -
19/05:00pm 31.9 NNE 16 21 1009.3 - 0.0 - - 10 - - - -
19/04:30pm 32.3 NNE 16 20 1009.4 - 0.0 - Partly cloudy 10 - - - -
19/04:00pm 32.6 N 16 21 1009.5 - 0.0 - Partly cloudy 10 - - - -
19/03:30pm 31.9 N 15 17 1009.7 - 0.0 - Partly cloudy 10 - - - -
19/03:00pm 31.8 N 15 18 1009.5 F 0.0 Haze Partly cloudy 25 - - - -
19/02:30pm 32.8 N 13 16 1010.0 - 0.0 - Partly cloudy 10 - - - -
19/02:00pm 32.4 N 14 19 1010.4 - 0.0 - Partly cloudy 10 - - - -
19/01:30pm 34.2 N 13 16 1010.9 - 0.0 - Partly cloudy 10 - - - -
19/01:00pm 33.9 NE 13 19 1011.5 - 0.0 - Partly cloudy 10 - - - -
19/12:30pm 33.4 NE 14 20 1012.1 - 0.0 - Partly cloudy 10 - - - -
19/12:00pm 33.9 N 10 16 1012.5 F 0.0 Fine Mostly clear 30 - - - -
19/11:30am 33.4 N 12 15 1013.2 - 0.0 - Mostly clear 10 - - - -
19/11:00am 33.1 ENE 11 17 1013.7 - 0.0 - Mostly clear 10 - - - -
19/10:30am 31.6 NE 11 15 1014.1 - 0.0 - Mostly clear 10 - - - -
19/10:00am 31.0 NE 11 18 1014.2 - 0.0 - Mostly clear 10 - - - -
19/09:30am 30.5 ENE 10 16 1014.4 - 0.0 - Mostly clear 10 - - - -
19/09:00am 29.4 ENE 12 18 1014.2 R 0.0 Fine Mostly clear 25 - - - -
19/08:30am 29.0 ENE 7 11 1014.5 - 0.0 - Mostly clear 10 - - - -
19/08:00am 27.8 E 7 9 1014.3 - 0.0 - - 10 - - - -
19/07:30am 26.8 E 7 8 1014.0 - 0.0 - - 10 - - - -
19/07:00am 25.6 E 6 7 1013.4 - 0.0 - - 10 - - - -
19/06:30am 24.6 E 5 5 1013.1 - 0.0 - - 10 - - - -
19/06:00am 25.0 E 6 7 1012.7 R 0.0 Smoke Mostly clear 15 - - - -
19/05:30am 24.7 E 4 5 1012.7 - 0.0 - Mostly clear 10 - - - -
19/05:00am 24.9 E 8 10 1012.6 - 0.0 - - 10 - - - -
19/04:30am 25.3 E 8 9 1012.5 - 0.0 - Mostly clear 10 - - - -
19/04:00am 25.6 E 7 8 1012.3 - 0.0 - Mostly clear 10 - - - -
19/03:30am 25.0 ENE 6 7 1012.2 - 0.0 - Mostly clear 10 - - - -
19/03:00am 25.1 NE 6 7 1011.9 R 0.0 Smoke Mostly clear 20 - - - -
19/02:30am 25.0 NNE 3 4 1012.0 - 0.0 - Mostly clear 10 - - - -
19/02:00am 25.4 N 4 5 1012.0 - 0.0 - - 10 - - - -
19/01:30am 25.8 N 3 5 1012.2 - 0.0 - - 10 - - - -
19/01:00am 27.1 W 5 5 1012.4 - 0.0 - - 10 - - - -
19/12:30am 27.5 WNW 6 7 1012.6 - 0.0 - - 10 - - - -
19/12:00am 28.0 NW 7 9 1012.4 F 0.0 Smoke Mostly clear 20 - - - -
 
Date/Time
CST
Temp

°C
Wind Pressure Rain
since 9am
mm
Weather Cloud Vis
km
Sea
Height
m
Swell
Dir
 
Speed
knots
Gust
knots
hPa Trend Height
m
Period
s
Dir
18/11:30pm 28.1 WNW 10 12 1012.9 - 0.0 - Mostly clear 10 - - - -
18/11:00pm 28.3 NW 11 14 1013.0 - 0.0 - Mostly clear 10 - - - -
18/10:30pm 28.4 WNW 11 14 1012.9 - 0.0 - Mostly clear 10 - - - -
18/10:00pm 27.9 WNW 10 13 1012.7 - 0.0 - Mostly clear 10 - - - -
18/09:30pm 26.8 ENE 6 7 1012.3 - 0.0 - Mostly clear 10 - - - -
18/09:00pm 27.1 ENE 8 8 1011.8 R 0.0 Smoke Mostly clear 20 - - - -
18/08:30pm 27.7 NE 7 8 1011.7 - 0.0 - - 10 - - - -
18/08:00pm 28.7 NNE 8 10 1011.3 - 0.0 - - 10 - - - -

Other Formats:

Comma delimited format used in spreadsheet applications
http://www.bom.gov.au/fwo/IDD60701/IDD60701.94120.axf

JavaScript Object Notation format (JSON) in row-major order
http://www.bom.gov.au/fwo/IDD60701/IDD60701.94120.json